sensor_id;sensor_type;location;lat;lon;timestamp;pressure;altitude;pressure_sealevel;temperature;humidity
28004;BME280;15330;51.234;6.754;2023-05-25T00:00:50;101929.88;;;12.45;95.00
28004;BME280;15330;51.234;6.754;2023-05-25T00:03:15;101910.41;;;12.33;95.62
28004;BME280;15330;51.234;6.754;2023-05-25T00:05:41;101912.69;;;12.28;94.99
28004;BME280;15330;51.234;6.754;2023-05-25T00:08:06;101910.84;;;12.29;96.10
28004;BME280;15330;51.234;6.754;2023-05-25T00:10:32;101918.63;;;12.32;95.10
28004;BME280;15330;51.234;6.754;2023-05-25T00:12:57;101916.06;;;12.30;95.32
28004;BME280;15330;51.234;6.754;2023-05-25T00:15:22;101911.75;;;12.20;95.37
28004;BME280;15330;51.234;6.754;2023-05-25T00:17:48;101907.88;;;12.32;95.31
28004;BME280;15330;51.234;6.754;2023-05-25T00:20:13;101899.28;;;12.28;95.61
28004;BME280;15330;51.234;6.754;2023-05-25T00:22:42;101911.00;;;12.27;95.43
28004;BME280;15330;51.234;6.754;2023-05-25T00:25:09;101902.09;;;12.27;95.43
28004;BME280;15330;51.234;6.754;2023-05-25T00:27:35;101911.31;;;12.24;95.75
28004;BME280;15330;51.234;6.754;2023-05-25T00:30:00;101912.41;;;12.31;95.31
28004;BME280;15330;51.234;6.754;2023-05-25T00:32:26;101919.47;;;12.32;95.33
28004;BME280;15330;51.234;6.754;2023-05-25T00:34:52;101919.75;;;12.29;96.04
28004;BME280;15330;51.234;6.754;2023-05-25T00:37:18;101922.56;;;12.28;96.86
28004;BME280;15330;51.234;6.754;2023-05-25T00:39:43;101916.84;;;12.13;96.49
28004;BME280;15330;51.234;6.754;2023-05-25T00:42:09;101904.75;;;11.99;97.07
28004;BME280;15330;51.234;6.754;2023-05-25T00:44:34;101904.19;;;11.96;97.09
28004;BME280;15330;51.234;6.754;2023-05-25T00:47:00;101901.47;;;12.05;96.71
28004;BME280;15330;51.234;6.754;2023-05-25T00:49:27;101901.59;;;12.13;96.26
28004;BME280;15330;51.234;6.754;2023-05-25T00:51:56;101906.28;;;12.11;96.59
28004;BME280;15330;51.234;6.754;2023-05-25T00:54:21;101903.88;;;12.08;96.93
28004;BME280;15330;51.234;6.754;2023-05-25T00:56:55;101911.22;;;12.06;97.14
28004;BME280;15330;51.234;6.754;2023-05-25T00:59:31;101901.63;;;11.94;96.92
28004;BME280;15330;51.234;6.754;2023-05-25T01:02:02;101904.19;;;11.96;97.75
28004;BME280;15330;51.234;6.754;2023-05-25T01:04:30;101917.47;;;11.88;98.76
28004;BME280;15330;51.234;6.754;2023-05-25T01:06:58;101906.34;;;11.83;98.38
28004;BME280;15330;51.234;6.754;2023-05-25T01:09:26;101908.03;;;11.84;99.00
28004;BME280;15330;51.234;6.754;2023-05-25T01:11:52;101916.06;;;11.84;98.90
28004;BME280;15330;51.234;6.754;2023-05-25T01:14:21;101918.47;;;11.77;98.24
28004;BME280;15330;51.234;6.754;2023-05-25T01:16:47;101911.00;;;11.81;98.66
28004;BME280;15330;51.234;6.754;2023-05-25T01:19:13;101910.84;;;11.72;98.84
28004;BME280;15330;51.234;6.754;2023-05-25T01:21:43;101916.22;;;11.72;99.29
28004;BME280;15330;51.234;6.754;2023-05-25T01:27:20;101926.94;;;11.53;100.00
28004;BME280;15330;51.234;6.754;2023-05-25T01:29:47;101913.72;;;11.52;99.67
28004;BME280;15330;51.234;6.754;2023-05-25T01:32:14;101920.31;;;11.67;99.49
28004;BME280;15330;51.234;6.754;2023-05-25T01:34:42;101917.91;;;11.64;99.27
28004;BME280;15330;51.234;6.754;2023-05-25T01:37:07;101918.34;;;11.69;99.34
28004;BME280;15330;51.234;6.754;2023-05-25T01:39:33;101923.97;;;11.56;98.70
28004;BME280;15330;51.234;6.754;2023-05-25T01:41:58;101928.22;;;11.59;100.00
28004;BME280;15330;51.234;6.754;2023-05-25T01:44:24;101928.50;;;11.46;100.00
28004;BME280;15330;51.234;6.754;2023-05-25T01:47:15;101924.56;;;11.60;99.22
28004;BME280;15330;51.234;6.754;2023-05-25T01:50:04;101921.03;;;11.59;99.77
28004;BME280;15330;51.234;6.754;2023-05-25T01:52:55;101936.25;;;11.49;99.78
28004;BME280;15330;51.234;6.754;2023-05-25T01:55:24;101934.69;;;11.56;99.76
28004;BME280;15330;51.234;6.754;2023-05-25T01:57:52;101916.94;;;11.46;98.83
28004;BME280;15330;51.234;6.754;2023-05-25T02:00:23;101925.28;;;11.52;99.68
28004;BME280;15330;51.234;6.754;2023-05-25T02:02:50;101923.00;;;11.57;98.94
28004;BME280;15330;51.234;6.754;2023-05-25T02:05:18;101915.69;;;11.50;99.20
28004;BME280;15330;51.234;6.754;2023-05-25T02:07:44;101922.44;;;11.54;98.85
28004;BME280;15330;51.234;6.754;2023-05-25T02:10:09;101919.19;;;11.60;98.98
28004;BME280;15330;51.234;6.754;2023-05-25T02:12:35;101926.25;;;11.61;98.47
28004;BME280;15330;51.234;6.754;2023-05-25T02:15:00;101919.06;;;11.52;98.73
28004;BME280;15330;51.234;6.754;2023-05-25T02:17:26;101926.25;;;11.42;99.31
28004;BME280;15330;51.234;6.754;2023-05-25T02:19:52;101924.84;;;11.47;99.78
28004;BME280;15330;51.234;6.754;2023-05-25T02:22:19;101924.25;;;11.44;99.45
28004;BME280;15330;51.234;6.754;2023-05-25T02:24:45;101933.47;;;11.31;100.00
28004;BME280;15330;51.234;6.754;2023-05-25T02:27:10;101924.13;;;11.35;99.26
28004;BME280;15330;51.234;6.754;2023-05-25T02:29:37;101926.94;;;11.24;100.00
28004;BME280;15330;51.234;6.754;2023-05-25T02:32:03;101926.09;;;11.14;100.00
28004;BME280;15330;51.234;6.754;2023-05-25T02:34:28;101933.16;;;11.25;100.00
28004;BME280;15330;51.234;6.754;2023-05-25T02:36:54;101936.25;;;11.20;100.00
28004;BME280;15330;51.234;6.754;2023-05-25T02:39:19;101936.16;;;10.72;100.00
28004;BME280;15330;51.234;6.754;2023-05-25T02:41:45;101933.69;;;10.50;100.00
28004;BME280;15330;51.234;6.754;2023-05-25T02:44:10;101931.31;;;10.47;100.00
28004;BME280;15330;51.234;6.754;2023-05-25T02:46:36;101941.69;;;10.40;100.00
28004;BME280;15330;51.234;6.754;2023-05-25T02:49:01;101939.97;;;10.39;100.00
28004;BME280;15330;51.234;6.754;2023-05-25T02:51:27;101942.31;;;10.23;100.00
28004;BME280;15330;51.234;6.754;2023-05-25T02:53:53;101943.88;;;10.25;100.00
28004;BME280;15330;51.234;6.754;2023-05-25T02:56:18;101938.56;;;10.35;100.00
28004;BME280;15330;51.234;6.754;2023-05-25T02:58:43;101945.88;;;10.33;100.00
28004;BME280;15330;51.234;6.754;2023-05-25T03:01:09;101946.09;;;10.20;100.00
28004;BME280;15330;51.234;6.754;2023-05-25T03:03:37;101939.13;;;10.39;100.00
28004;BME280;15330;51.234;6.754;2023-05-25T03:06:03;101949.56;;;10.42;100.00
28004;BME280;15330;51.234;6.754;2023-05-25T03:08:29;101957.41;;;10.64;100.00
28004;BME280;15330;51.234;6.754;2023-05-25T03:10:55;101956.81;;;10.60;100.00
28004;BME280;15330;51.234;6.754;2023-05-25T03:13:20;101955.59;;;10.64;100.00
28004;BME280;15330;51.234;6.754;2023-05-25T03:15:46;101963.59;;;10.64;100.00
28004;BME280;15330;51.234;6.754;2023-05-25T03:18:11;101964.59;;;10.63;100.00
28004;BME280;15330;51.234;6.754;2023-05-25T03:20:36;101965.06;;;10.38;100.00
28004;BME280;15330;51.234;6.754;2023-05-25T03:23:02;101962.22;;;10.40;100.00
28004;BME280;15330;51.234;6.754;2023-05-25T03:25:27;101962.84;;;10.53;100.00
28004;BME280;15330;51.234;6.754;2023-05-25T03:27:53;101971.34;;;10.58;100.00
28004;BME280;15330;51.234;6.754;2023-05-25T03:30:20;101956.06;;;10.49;100.00
28004;BME280;15330;51.234;6.754;2023-05-25T03:32:45;101963.78;;;10.42;100.00
28004;BME280;15330;51.234;6.754;2023-05-25T03:35:10;101962.22;;;10.40;100.00
28004;BME280;15330;51.234;6.754;2023-05-25T03:37:36;101958.34;;;10.53;100.00
28004;BME280;15330;51.234;6.754;2023-05-25T03:40:01;101956.56;;;10.63;100.00
28004;BME280;15330;51.234;6.754;2023-05-25T03:42:27;101961.53;;;10.68;100.00
28004;BME280;15330;51.234;6.754;2023-05-25T03:44:52;101967.72;;;10.69;100.00
28004;BME280;15330;51.234;6.754;2023-05-25T03:47:18;101967.84;;;10.67;100.00
28004;BME280;15330;51.234;6.754;2023-05-25T03:49:43;101969.69;;;10.66;100.00
28004;BME280;15330;51.234;6.754;2023-05-25T03:52:08;101970.94;;;10.72;100.00
28004;BME280;15330;51.234;6.754;2023-05-25T03:54:34;101965.19;;;10.67;100.00
28004;BME280;15330;51.234;6.754;2023-05-25T03:56:59;101969.81;;;10.65;100.00
28004;BME280;15330;51.234;6.754;2023-05-25T03:59:26;101983.19;;;10.65;100.00
28004;BME280;15330;51.234;6.754;2023-05-25T04:01:51;101985.59;;;10.68;100.00
28004;BME280;15330;51.234;6.754;2023-05-25T04:04:17;101983.91;;;10.67;100.00
28004;BME280;15330;51.234;6.754;2023-05-25T04:06:42;101998.44;;;10.74;100.00
28004;BME280;15330;51.234;6.754;2023-05-25T04:09:10;101989.16;;;10.78;100.00
28004;BME280;15330;51.234;6.754;2023-05-25T04:11:36;101991.28;;;10.84;100.00
28004;BME280;15330;51.234;6.754;2023-05-25T04:14:01;101989.75;;;11.01;100.00
28004;BME280;15330;51.234;6.754;2023-05-25T04:16:27;101997.56;;;11.14;100.00
28004;BME280;15330;51.234;6.754;2023-05-25T04:18:53;102002.25;;;11.31;100.00
28004;BME280;15330;51.234;6.754;2023-05-25T04:21:18;101998.16;;;11.27;100.00
28004;BME280;15330;51.234;6.754;2023-05-25T04:23:44;102007.56;;;11.12;100.00
28004;BME280;15330;51.234;6.754;2023-05-25T04:26:09;102008.59;;;11.30;100.00
28004;BME280;15330;51.234;6.754;2023-05-25T04:28:35;102010.69;;;11.17;100.00
28004;BME280;15330;51.234;6.754;2023-05-25T04:31:05;102008.88;;;11.36;100.00
28004;BME280;15330;51.234;6.754;2023-05-25T04:33:31;102010.31;;;11.40;100.00
28004;BME280;15330;51.234;6.754;2023-05-25T04:35:59;102005.34;;;11.26;100.00
28004;BME280;15330;51.234;6.754;2023-05-25T04:38:24;102019.59;;;11.36;100.00
28004;BME280;15330;51.234;6.754;2023-05-25T04:40:50;102019.47;;;11.48;100.00
28004;BME280;15330;51.234;6.754;2023-05-25T04:43:18;102013.25;;;11.28;100.00
28004;BME280;15330;51.234;6.754;2023-05-25T04:45:44;102020.16;;;11.30;100.00
28004;BME280;15330;51.234;6.754;2023-05-25T04:48:11;102021.69;;;11.33;100.00
28004;BME280;15330;51.234;6.754;2023-05-25T04:50:37;102026.06;;;11.34;100.00
28004;BME280;15330;51.234;6.754;2023-05-25T04:53:04;102025.22;;;11.43;100.00
28004;BME280;15330;51.234;6.754;2023-05-25T04:55:30;102025.34;;;11.32;100.00
28004;BME280;15330;51.234;6.754;2023-05-25T04:57:55;102024.25;;;11.63;100.00
28004;BME280;15330;51.234;6.754;2023-05-25T05:00:21;102027.38;;;11.59;100.00
28004;BME280;15330;51.234;6.754;2023-05-25T05:02:46;102025.66;;;11.38;100.00
28004;BME280;15330;51.234;6.754;2023-05-25T05:05:12;102040.63;;;11.51;100.00
28004;BME280;15330;51.234;6.754;2023-05-25T05:07:37;102037.81;;;11.62;100.00
28004;BME280;15330;51.234;6.754;2023-05-25T05:10:03;102038.69;;;11.72;100.00
28004;BME280;15330;51.234;6.754;2023-05-25T05:12:28;102039.13;;;11.77;100.00
28004;BME280;15330;51.234;6.754;2023-05-25T05:14:54;102039.22;;;11.66;100.00
28004;BME280;15330;51.234;6.754;2023-05-25T05:17:20;102038.50;;;11.73;100.00
28004;BME280;15330;51.234;6.754;2023-05-25T05:19:45;102045.75;;;11.92;100.00
28004;BME280;15330;51.234;6.754;2023-05-25T05:22:11;102039.81;;;12.08;100.00
28004;BME280;15330;51.234;6.754;2023-05-25T05:24:39;102044.16;;;12.19;100.00
28004;BME280;15330;51.234;6.754;2023-05-25T05:27:04;102050.81;;;12.24;100.00
28004;BME280;15330;51.234;6.754;2023-05-25T05:29:30;102051.66;;;12.25;100.00
28004;BME280;15330;51.234;6.754;2023-05-25T05:31:55;102068.75;;;12.14;100.00
28004;BME280;15330;51.234;6.754;2023-05-25T05:34:21;102066.91;;;12.15;100.00
28004;BME280;15330;51.234;6.754;2023-05-25T05:36:46;102061.63;;;12.42;100.00
28004;BME280;15330;51.234;6.754;2023-05-25T05:39:12;102064.31;;;12.52;100.00
28004;BME280;15330;51.234;6.754;2023-05-25T05:41:38;102061.06;;;12.38;100.00
28004;BME280;15330;51.234;6.754;2023-05-25T05:44:07;102066.88;;;12.34;100.00
28004;BME280;15330;51.234;6.754;2023-05-25T05:46:33;102075.44;;;12.57;100.00
28004;BME280;15330;51.234;6.754;2023-05-25T05:48:58;102071.13;;;13.20;100.00
28004;BME280;15330;51.234;6.754;2023-05-25T05:51:23;102067.75;;;13.08;100.00
28004;BME280;15330;51.234;6.754;2023-05-25T05:53:49;102071.31;;;12.99;100.00
28004;BME280;15330;51.234;6.754;2023-05-25T05:56:18;102067.88;;;12.79;100.00
28004;BME280;15330;51.234;6.754;2023-05-25T05:58:44;102073.25;;;12.79;100.00
28004;BME280;15330;51.234;6.754;2023-05-25T06:01:09;102070.94;;;12.94;100.00
28004;BME280;15330;51.234;6.754;2023-05-25T06:03:35;102081.41;;;12.97;100.00
28004;BME280;15330;51.234;6.754;2023-05-25T06:06:02;102076.34;;;12.84;100.00
28004;BME280;15330;51.234;6.754;2023-05-25T06:08:27;102079.53;;;13.35;99.66
28004;BME280;15330;51.234;6.754;2023-05-25T06:10:53;102086.22;;;12.94;100.00
28004;BME280;15330;51.234;6.754;2023-05-25T06:13:20;102083.06;;;13.35;100.00
28004;BME280;15330;51.234;6.754;2023-05-25T06:15:45;102080.53;;;13.79;99.05
28004;BME280;15330;51.234;6.754;2023-05-25T06:18:10;102086.88;;;14.13;96.31
28004;BME280;15330;51.234;6.754;2023-05-25T06:20:36;102087.88;;;13.94;96.40
28004;BME280;15330;51.234;6.754;2023-05-25T06:23:01;102094.34;;;13.84;96.11
28004;BME280;15330;51.234;6.754;2023-05-25T06:25:26;102091.09;;;14.16;95.33
28004;BME280;15330;51.234;6.754;2023-05-25T06:27:52;102089.31;;;14.24;95.15
28004;BME280;15330;51.234;6.754;2023-05-25T06:30:17;102094.94;;;14.31;93.66
28004;BME280;15330;51.234;6.754;2023-05-25T06:32:42;102094.47;;;14.36;94.92
28004;BME280;15330;51.234;6.754;2023-05-25T06:35:08;102088.56;;;14.32;93.99
28004;BME280;15330;51.234;6.754;2023-05-25T06:37:34;102099.41;;;14.40;93.25
28004;BME280;15330;51.234;6.754;2023-05-25T06:40:05;102097.72;;;14.39;92.53
28004;BME280;15330;51.234;6.754;2023-05-25T06:42:34;102099.81;;;14.71;92.95
28004;BME280;15330;51.234;6.754;2023-05-25T06:44:59;102100.63;;;14.46;92.03
28004;BME280;15330;51.234;6.754;2023-05-25T06:47:25;102107.53;;;14.48;92.92
28004;BME280;15330;51.234;6.754;2023-05-25T06:49:50;102107.13;;;14.87;91.08
28004;BME280;15330;51.234;6.754;2023-05-25T06:52:16;102102.97;;;15.34;89.57
28004;BME280;15330;51.234;6.754;2023-05-25T06:54:41;102106.25;;;15.12;89.12
28004;BME280;15330;51.234;6.754;2023-05-25T06:57:06;102113.13;;;14.55;91.31
28004;BME280;15330;51.234;6.754;2023-05-25T06:59:32;102120.84;;;15.01;91.00
28004;BME280;15330;51.234;6.754;2023-05-25T07:01:58;102117.06;;;15.20;90.10
28004;BME280;15330;51.234;6.754;2023-05-25T07:04:24;102118.53;;;14.81;91.64
28004;BME280;15330;51.234;6.754;2023-05-25T07:06:49;102112.19;;;14.90;89.72
28004;BME280;15330;51.234;6.754;2023-05-25T07:09:16;102121.16;;;15.66;87.51
28004;BME280;15330;51.234;6.754;2023-05-25T07:11:41;102118.16;;;15.94;87.07
28004;BME280;15330;51.234;6.754;2023-05-25T07:14:07;102122.09;;;16.40;87.34
28004;BME280;15330;51.234;6.754;2023-05-25T07:16:32;102123.22;;;15.89;88.03
28004;BME280;15330;51.234;6.754;2023-05-25T07:18:58;102119.88;;;16.43;85.34
28004;BME280;15330;51.234;6.754;2023-05-25T07:21:23;102123.88;;;16.96;85.70
28004;BME280;15330;51.234;6.754;2023-05-25T07:23:49;102128.94;;;15.35;85.92
28004;BME280;15330;51.234;6.754;2023-05-25T07:26:14;102130.28;;;15.90;86.46
28004;BME280;15330;51.234;6.754;2023-05-25T07:28:40;102132.03;;;16.56;84.88
28004;BME280;15330;51.234;6.754;2023-05-25T07:31:07;102123.56;;;15.86;83.75
28004;BME280;15330;51.234;6.754;2023-05-25T07:33:32;102127.63;;;15.98;85.25
28004;BME280;15330;51.234;6.754;2023-05-25T07:35:58;102127.13;;;16.92;83.04
28004;BME280;15330;51.234;6.754;2023-05-25T07:38:23;102130.94;;;17.05;83.22
28004;BME280;15330;51.234;6.754;2023-05-25T07:40:48;102133.91;;;16.63;83.00
28004;BME280;15330;51.234;6.754;2023-05-25T07:43:14;102133.72;;;16.89;81.51
28004;BME280;15330;51.234;6.754;2023-05-25T07:45:40;102126.00;;;17.56;81.68
28004;BME280;15330;51.234;6.754;2023-05-25T07:48:05;102136.91;;;17.40;79.87
28004;BME280;15330;51.234;6.754;2023-05-25T07:50:32;102132.00;;;16.88;79.53
28004;BME280;15330;51.234;6.754;2023-05-25T07:52:57;102139.63;;;16.52;79.24
28004;BME280;15330;51.234;6.754;2023-05-25T07:55:25;102133.19;;;16.12;80.53
28004;BME280;15330;51.234;6.754;2023-05-25T07:57:51;102142.63;;;16.98;79.75
28004;BME280;15330;51.234;6.754;2023-05-25T08:00:17;102148.06;;;16.08;79.83
28004;BME280;15330;51.234;6.754;2023-05-25T08:02:42;102148.06;;;16.25;80.93
28004;BME280;15330;51.234;6.754;2023-05-25T08:05:08;102143.31;;;16.51;78.89
28004;BME280;15330;51.234;6.754;2023-05-25T08:07:34;102146.78;;;17.72;77.32
28004;BME280;15330;51.234;6.754;2023-05-25T08:10:00;102150.75;;;16.90;79.85
28004;BME280;15330;51.234;6.754;2023-05-25T08:12:26;102147.66;;;17.64;78.46
28004;BME280;15330;51.234;6.754;2023-05-25T08:14:53;102145.34;;;17.45;78.90
28004;BME280;15330;51.234;6.754;2023-05-25T08:17:19;102158.19;;;16.55;78.16
28004;BME280;15330;51.234;6.754;2023-05-25T08:19:45;102157.59;;;15.78;83.05
28004;BME280;15330;51.234;6.754;2023-05-25T08:22:10;102144.53;;;16.57;81.30
28004;BME280;15330;51.234;6.754;2023-05-25T08:24:36;102148.59;;;16.36;79.63
28004;BME280;15330;51.234;6.754;2023-05-25T08:27:01;102148.56;;;16.44;82.40
28004;BME280;15330;51.234;6.754;2023-05-25T08:29:27;102140.09;;;15.91;81.45
28004;BME280;15330;51.234;6.754;2023-05-25T08:31:53;102142.09;;;17.10;79.17
28004;BME280;15330;51.234;6.754;2023-05-25T08:34:18;102143.56;;;17.68;77.11
28004;BME280;15330;51.234;6.754;2023-05-25T08:36:44;102134.66;;;17.51;75.57
28004;BME280;15330;51.234;6.754;2023-05-25T08:39:10;102145.78;;;18.41;75.21
28004;BME280;15330;51.234;6.754;2023-05-25T08:41:40;102151.69;;;18.22;72.07
28004;BME280;15330;51.234;6.754;2023-05-25T08:44:05;102150.34;;;17.56;75.30
28004;BME280;15330;51.234;6.754;2023-05-25T08:46:33;102152.69;;;17.75;75.44
28004;BME280;15330;51.234;6.754;2023-05-25T08:49:03;102146.81;;;17.94;72.61
28004;BME280;15330;51.234;6.754;2023-05-25T08:51:46;102146.19;;;18.90;74.45
28004;BME280;15330;51.234;6.754;2023-05-25T08:54:16;102146.72;;;18.71;70.50
28004;BME280;15330;51.234;6.754;2023-05-25T09:01:55;102142.66;;;17.84;72.23
28004;BME280;15330;51.234;6.754;2023-05-25T09:04:23;102141.59;;;18.16;71.34
28004;BME280;15330;51.234;6.754;2023-05-25T09:06:49;102146.47;;;17.58;72.08
28004;BME280;15330;51.234;6.754;2023-05-25T09:09:15;102144.50;;;16.89;73.00
28004;BME280;15330;51.234;6.754;2023-05-25T09:11:42;102148.91;;;16.82;73.99
28004;BME280;15330;51.234;6.754;2023-05-25T09:14:09;102154.81;;;16.53;75.91
28004;BME280;15330;51.234;6.754;2023-05-25T09:16:38;102152.16;;;16.69;76.42
28004;BME280;15330;51.234;6.754;2023-05-25T09:19:04;102147.03;;;18.08;72.81
28004;BME280;15330;51.234;6.754;2023-05-25T09:21:30;102152.59;;;17.44;70.51
28004;BME280;15330;51.234;6.754;2023-05-25T09:23:57;102151.00;;;17.27;73.09
28004;BME280;15330;51.234;6.754;2023-05-25T09:26:22;102136.94;;;18.02;69.52
28004;BME280;15330;51.234;6.754;2023-05-25T09:28:47;102147.25;;;18.06;71.04
28004;BME280;15330;51.234;6.754;2023-05-25T09:31:16;102149.09;;;18.06;68.49
28004;BME280;15330;51.234;6.754;2023-05-25T09:33:42;102151.25;;;18.79;67.11
28004;BME280;15330;51.234;6.754;2023-05-25T09:36:08;102155.38;;;18.89;66.39
28004;BME280;15330;51.234;6.754;2023-05-25T09:38:35;102153.31;;;19.21;64.94
28004;BME280;15330;51.234;6.754;2023-05-25T09:41:00;102152.59;;;18.60;66.30
28004;BME280;15330;51.234;6.754;2023-05-25T09:43:26;102151.41;;;18.92;66.05
28004;BME280;15330;51.234;6.754;2023-05-25T09:45:52;102157.56;;;18.71;64.90
28004;BME280;15330;51.234;6.754;2023-05-25T09:48:18;102154.28;;;18.15;66.38
28004;BME280;15330;51.234;6.754;2023-05-25T09:50:43;102154.00;;;18.70;66.98
28004;BME280;15330;51.234;6.754;2023-05-25T09:53:09;102164.44;;;19.26;63.27
28004;BME280;15330;51.234;6.754;2023-05-25T09:55:36;102158.97;;;18.82;64.53
28004;BME280;15330;51.234;6.754;2023-05-25T09:58:01;102150.41;;;19.37;63.52
28004;BME280;15330;51.234;6.754;2023-05-25T10:00:27;102151.06;;;19.68;62.43
28004;BME280;15330;51.234;6.754;2023-05-25T10:02:52;102165.53;;;20.75;60.58
28004;BME280;15330;51.234;6.754;2023-05-25T10:05:18;102167.06;;;19.04;64.37
28004;BME280;15330;51.234;6.754;2023-05-25T10:07:45;102164.75;;;18.18;64.85
28004;BME280;15330;51.234;6.754;2023-05-25T10:10:14;102166.34;;;18.50;63.97
28004;BME280;15330;51.234;6.754;2023-05-25T10:12:41;102179.16;;;18.79;64.32
28004;BME280;15330;51.234;6.754;2023-05-25T10:15:08;102170.25;;;19.37;62.02
28004;BME280;15330;51.234;6.754;2023-05-25T10:17:35;102166.47;;;19.83;60.57
28004;BME280;15330;51.234;6.754;2023-05-25T10:20:06;102179.69;;;19.27;62.66
28004;BME280;15330;51.234;6.754;2023-05-25T10:22:42;102173.22;;;18.38;63.63
28004;BME280;15330;51.234;6.754;2023-05-25T10:26:02;102169.19;;;18.94;64.67
28004;BME280;15330;51.234;6.754;2023-05-25T10:28:30;102170.53;;;19.28;64.07
28004;BME280;15330;51.234;6.754;2023-05-25T10:31:00;102173.63;;;19.69;62.65
28004;BME280;15330;51.234;6.754;2023-05-25T10:33:26;102185.31;;;18.50;65.80
28004;BME280;15330;51.234;6.754;2023-05-25T10:35:53;102183.47;;;17.74;67.41
28004;BME280;15330;51.234;6.754;2023-05-25T10:38:19;102182.19;;;17.46;68.35
28004;BME280;15330;51.234;6.754;2023-05-25T10:40:47;102190.81;;;17.88;68.25
28004;BME280;15330;51.234;6.754;2023-05-25T10:43:16;102186.00;;;18.75;66.76
28004;BME280;15330;51.234;6.754;2023-05-25T10:45:42;102179.94;;;18.88;64.98
28004;BME280;15330;51.234;6.754;2023-05-25T10:48:08;102188.97;;;18.80;64.67
28004;BME280;15330;51.234;6.754;2023-05-25T10:50:34;102184.28;;;19.26;63.85
28004;BME280;15330;51.234;6.754;2023-05-25T10:53:07;102185.94;;;18.38;63.97
28004;BME280;15330;51.234;6.754;2023-05-25T10:58:21;102191.94;;;18.02;65.42
28004;BME280;15330;51.234;6.754;2023-05-25T11:06:09;102192.56;;;17.81;65.70
28004;BME280;15330;51.234;6.754;2023-05-25T11:11:16;102187.69;;;18.53;63.21
28004;BME280;15330;51.234;6.754;2023-05-25T11:13:45;102185.19;;;19.04;62.94
28004;BME280;15330;51.234;6.754;2023-05-25T11:18:43;102189.81;;;18.66;64.77
28004;BME280;15330;51.234;6.754;2023-05-25T11:26:23;102191.63;;;17.97;65.60
28004;BME280;15330;51.234;6.754;2023-05-25T11:28:53;102182.16;;;18.24;64.23
28004;BME280;15330;51.234;6.754;2023-05-25T11:31:27;102188.16;;;18.11;64.04
28004;BME280;15330;51.234;6.754;2023-05-25T11:33:58;102183.81;;;18.02;65.00
28004;BME280;15330;51.234;6.754;2023-05-25T11:36:26;102181.69;;;18.66;65.25
28004;BME280;15330;51.234;6.754;2023-05-25T11:38:52;102177.34;;;18.34;64.74
28004;BME280;15330;51.234;6.754;2023-05-25T11:41:19;102175.16;;;18.90;62.87
28004;BME280;15330;51.234;6.754;2023-05-25T11:43:47;102175.19;;;17.98;66.22
28004;BME280;15330;51.234;6.754;2023-05-25T11:46:14;102167.50;;;18.10;65.93
28004;BME280;15330;51.234;6.754;2023-05-25T11:48:53;102175.63;;;18.10;65.44
28004;BME280;15330;51.234;6.754;2023-05-25T11:51:26;102170.81;;;17.67;67.14
28004;BME280;15330;51.234;6.754;2023-05-25T11:53:52;102181.19;;;16.92;69.11
28004;BME280;15330;51.234;6.754;2023-05-25T11:56:18;102177.50;;;17.79;67.57
28004;BME280;15330;51.234;6.754;2023-05-25T11:58:45;102171.63;;;17.75;66.46
28004;BME280;15330;51.234;6.754;2023-05-25T12:01:22;102166.75;;;18.24;64.68
28004;BME280;15330;51.234;6.754;2023-05-25T12:03:50;102161.59;;;18.07;64.85
28004;BME280;15330;51.234;6.754;2023-05-25T12:06:33;102172.69;;;18.20;63.54
28004;BME280;15330;51.234;6.754;2023-05-25T12:09:01;102167.50;;;18.79;62.95
28004;BME280;15330;51.234;6.754;2023-05-25T12:11:35;102160.00;;;18.66;63.39
28004;BME280;15330;51.234;6.754;2023-05-25T12:14:05;102163.28;;;18.91;64.04
28004;BME280;15330;51.234;6.754;2023-05-25T12:16:32;102164.81;;;19.23;62.35
28004;BME280;15330;51.234;6.754;2023-05-25T12:18:59;102159.91;;;18.74;63.61
28004;BME280;15330;51.234;6.754;2023-05-25T12:21:26;102155.31;;;18.14;63.67
28004;BME280;15330;51.234;6.754;2023-05-25T12:23:52;102167.53;;;18.33;63.37
28004;BME280;15330;51.234;6.754;2023-05-25T12:26:18;102161.53;;;18.38;64.31
28004;BME280;15330;51.234;6.754;2023-05-25T12:29:02;102155.16;;;18.76;62.57
28004;BME280;15330;51.234;6.754;2023-05-25T12:31:29;102153.81;;;17.81;65.40
28004;BME280;15330;51.234;6.754;2023-05-25T12:39:11;102154.03;;;18.25;65.28
28004;BME280;15330;51.234;6.754;2023-05-25T12:44:20;102144.44;;;17.91;66.38
28004;BME280;15330;51.234;6.754;2023-05-25T12:46:49;102143.84;;;17.34;67.95
28004;BME280;15330;51.234;6.754;2023-05-25T12:49:25;102153.38;;;17.61;67.63
28004;BME280;15330;51.234;6.754;2023-05-25T12:51:50;102155.72;;;18.03;65.87
28004;BME280;15330;51.234;6.754;2023-05-25T12:54:16;102147.59;;;18.03;65.25
28004;BME280;15330;51.234;6.754;2023-05-25T12:56:58;102154.94;;;17.94;65.79
28004;BME280;15330;51.234;6.754;2023-05-25T12:59:23;102149.38;;;18.56;63.75
28004;BME280;15330;51.234;6.754;2023-05-25T13:01:51;102141.28;;;18.11;64.02
28004;BME280;15330;51.234;6.754;2023-05-25T13:04:17;102140.28;;;17.81;66.16
28004;BME280;15330;51.234;6.754;2023-05-25T13:06:42;102140.97;;;18.89;63.50
28004;BME280;15330;51.234;6.754;2023-05-25T13:09:07;102149.03;;;18.37;63.33
28004;BME280;15330;51.234;6.754;2023-05-25T13:11:33;102135.63;;;18.95;60.85
28004;BME280;15330;51.234;6.754;2023-05-25T13:13:58;102146.84;;;18.92;61.82
28004;BME280;15330;51.234;6.754;2023-05-25T13:16:23;102139.25;;;18.73;61.69
28004;BME280;15330;51.234;6.754;2023-05-25T13:18:50;102132.44;;;18.92;62.28
28004;BME280;15330;51.234;6.754;2023-05-25T13:21:16;102136.00;;;19.22;61.26